Time;durP1;ratioP1;P1;durP2;ratioP2;P2;SDS_P1;SDS_P2;PMS_P1;PMS_P2;Temp;Humidity;BMP_temperature;BMP_pressure;BME280_temperature;BME280_humidity;BME280_pressure;Samples;Min_cycle;Max_cycle;Signal;HPM_P1;HPM_P2
2022/01/06 00:01:37;;;;;;;8.38;3.75;;;7.10;99.90;;;;;;5079880;28;20048;-81
2022/01/06 00:04:04;;;;;;;6.25;2.65;;;7.00;1.00;;;;;;5085131;28;20064;-80
2022/01/06 00:06:37;;;;;;;7.05;3.58;;;6.90;1.00;;;;;;5094151;28;20051;-80
2022/01/06 00:09:06;;;;;;;11.45;4.80;;;6.80;1.00;;;;;;5089605;28;20075;-80
2022/01/06 00:11:36;;;;;;;8.35;3.40;;;6.90;91.60;;;;;;5078211;28;20445;-80
2022/01/06 00:14:09;;;;;;;8.50;3.80;;;6.80;99.90;;;;;;5076443;28;20507;-81
2022/01/06 00:16:43;;;;;;;7.35;3.42;;;6.80;99.90;;;;;;5078421;28;20041;-81
2022/01/06 00:24:44;;;;;;;4.05;1.50;;;6.50;1.00;;;;;;5057868;28;20048;-81
2022/01/06 00:27:13;;;;;;;3.75;1.50;;;6.40;1.00;;;;;;5077261;28;20096;-80
2022/01/06 00:29:42;;;;;;;6.18;2.45;;;6.30;1.00;;;;;;5078375;28;20135;-80
2022/01/06 00:32:10;;;;;;;6.82;2.75;;;6.30;1.00;;;;;;5077962;28;20445;-81
2022/01/06 00:34:41;;;;;;;6.00;2.17;;;6.20;1.00;;;;;;5077538;28;20044;-80
2022/01/06 00:37:08;;;;;;;4.90;1.85;;;6.30;12.40;;;;;;5078573;28;20457;-79
2022/01/06 00:39:36;;;;;;;4.22;1.80;;;6.30;1.00;;;;;;5071112;28;20049;-80
2022/01/06 00:42:04;;;;;;;4.15;1.60;;;6.10;1.00;;;;;;5078197;28;20119;-79
2022/01/06 00:44:36;;;;;;;7.30;2.42;;;6.00;15.50;;;;;;5078776;28;20457;-78
2022/01/06 00:47:04;;;;;;;8.00;2.85;;;6.00;99.90;;;;;;5068213;28;20040;-81
2022/01/06 00:49:31;;;;;;;3.65;1.48;;;5.90;99.90;;;;;;5084979;28;20431;-79
2022/01/06 00:51:59;;;;;;;3.45;1.27;;;5.80;99.90;;;;;;5066069;28;20044;-80
2022/01/06 00:54:27;;;;;;;2.00;1.00;;;5.70;1.00;;;;;;5075546;28;20415;-77
2022/01/06 00:56:54;;;;;;;3.35;1.40;;;5.50;1.00;;;;;;5057773;28;20052;-77
2022/01/06 00:59:22;;;;;;;4.38;1.30;;;5.40;1.00;;;;;;5078921;28;20063;-79
2022/01/06 01:01:51;;;;;;;6.95;2.65;;;5.30;99.90;;;;;;5076404;28;20044;-78
2022/01/06 01:04:18;;;;;;;4.70;2.10;;;5.20;99.90;;;;;;5058924;28;20056;-79
2022/01/06 01:06:46;;;;;;;5.15;1.98;;;5.10;1.00;;;;;;5058978;28;20102;-79
2022/01/06 01:09:14;;;;;;;4.28;2.05;;;5.10;1.00;;;;;;5067839;28;20052;-80
2022/01/06 01:11:41;;;;;;;3.40;1.60;;;5.10;1.00;;;;;;5069919;28;20044;-79
2022/01/06 01:14:18;;;;;;;1.38;0.68;;;5.00;1.00;;;;;;5068969;28;20419;-79
2022/01/06 01:16:53;;;;;;;5.82;2.33;;;4.90;1.00;;;;;;5067783;28;20080;-80
2022/01/06 01:19:22;;;;;;;;;;;4.80;1.00;;;;;;5077987;28;20036;-80
2022/01/06 01:21:50;;;;;;;4.65;2.10;;;4.80;99.90;;;;;;5074398;28;19951;-81
2022/01/06 01:24:18;;;;;;;3.65;1.60;;;4.90;99.90;;;;;;5076295;28;20051;-80
2022/01/06 01:26:46;;;;;;;2.28;0.82;;;5.00;99.90;;;;;;5077398;28;20100;-80
2022/01/06 01:29:17;;;;;;;17.35;6.57;;;5.00;99.90;;;;;;5074196;28;20068;-79
2022/01/06 01:31:50;;;;;;;4.18;1.85;;;5.00;99.90;;;;;;5058853;28;20048;-81
2022/01/06 01:34:23;;;;;;;6.22;2.70;;;5.10;99.90;;;;;;5058442;28;20114;-79
2022/01/06 01:36:52;;;;;;;5.15;2.83;;;5.00;99.90;;;;;;5058696;28;20048;-80
2022/01/06 01:39:19;;;;;;;4.20;2.10;;;4.90;1.00;;;;;;5074643;28;20044;-80
2022/01/06 01:41:50;;;;;;;2.63;1.20;;;5.00;99.90;;;;;;5075307;28;20037;-82
2022/01/06 01:44:20;;;;;;;2.63;1.27;;;5.00;1.00;;;;;;5056845;28;20438;-79
2022/01/06 01:47:00;;;;;;;14.65;7.43;;;5.00;99.90;;;;;;5072537;28;20102;-80
2022/01/06 01:49:33;;;;;;;18.60;9.35;;;5.00;94.50;;;;;;5057233;28;20071;-78
2022/01/06 01:52:02;;;;;;;5.78;2.47;;;5.00;1.00;;;;;;5056239;28;20037;-80
2022/01/06 01:54:30;;;;;;;2.95;1.65;;;4.90;1.00;;;;;;5075097;28;20427;-80
2022/01/06 01:56:57;;;;;;;2.90;1.60;;;4.90;1.00;;;;;;5073238;28;20052;-79
2022/01/06 01:59:25;;;;;;;4.20;1.95;;;5.00;99.90;;;;;;5076248;28;20048;-80
2022/01/06 02:01:54;;;;;;;5.38;2.60;;;5.00;99.90;;;;;;5074319;28;20045;-79
2022/01/06 02:04:21;;;;;;;4.75;2.35;;;5.00;1.00;;;;;;5087435;22;20059;-80
2022/01/06 02:06:49;;;;;;;4.75;2.55;;;5.00;1.00;;;;;;5065342;28;20112;-82
2022/01/06 02:09:19;;;;;;;4.90;2.42;;;4.90;1.00;;;;;;5045347;28;20053;-81
2022/01/06 02:11:47;;;;;;;6.50;2.88;;;4.90;99.90;;;;;;5056088;28;20037;-80
2022/01/06 02:14:14;;;;;;;5.22;2.50;;;5.00;1.00;;;;;;5038429;28;20077;-79
2022/01/06 02:16:42;;;;;;;5.07;2.50;;;5.00;1.00;;;;;;5050008;28;20052;-79
2022/01/06 02:19:10;;;;;;;5.07;2.58;;;5.00;1.00;;;;;;5056929;28;20052;-81
2022/01/06 02:21:41;;;;;;;8.40;3.60;;;5.10;1.00;;;;;;5066823;28;20419;-82
2022/01/06 02:24:09;;;;;;;6.03;2.08;;;5.00;1.00;;;;;;5053441;28;20114;-82
2022/01/06 02:26:37;;;;;;;6.03;2.40;;;4.90;1.00;;;;;;5068338;28;20341;-82
2022/01/06 02:29:05;;;;;;;3.58;1.63;;;4.80;1.00;;;;;;5058159;28;20075;-81
2022/01/06 02:31:41;;;;;;;4.68;1.98;;;4.70;1.00;;;;;;5075440;28;20044;-81
2022/01/06 02:34:09;;;;;;;4.07;1.40;;;4.80;99.90;;;;;;5057295;28;20056;-81
2022/01/06 02:36:37;;;;;;;3.47;1.27;;;4.80;99.90;;;;;;5056947;28;20110;-80
2022/01/06 02:39:07;;;;;;;5.63;2.47;;;4.80;99.90;;;;;;5057656;28;20062;-82
2022/01/06 02:41:34;;;;;;;7.85;3.55;;;4.80;1.00;;;;;;5076923;28;20048;-82
2022/01/06 02:44:03;;;;;;;8.20;4.10;;;4.80;1.00;;;;;;5058129;28;20529;-82
2022/01/06 02:46:30;;;;;;;6.97;3.35;;;4.90;99.90;;;;;;5078555;28;20044;-81
2022/01/06 02:48:58;;;;;;;6.55;2.78;;;4.90;99.90;;;;;;5065200;28;20376;-81
2022/01/06 02:51:26;;;;;;;4.50;1.80;;;5.00;1.00;;;;;;5062404;28;20535;-80
2022/01/06 02:53:53;;;;;;;3.25;1.35;;;4.90;99.90;;;;;;5060473;28;20142;-82
2022/01/06 02:56:22;;;;;;;2.38;1.20;;;5.00;99.90;;;;;;5079404;28;20041;-83
2022/01/06 02:58:50;;;;;;;4.68;1.20;;;5.00;99.90;;;;;;5086600;28;20571;-80
2022/01/06 03:01:17;;;;;;;5.07;1.80;;;5.00;99.90;;;;;;5062720;28;20059;-82
2022/01/06 03:03:45;;;;;;;3.83;1.60;;;5.00;99.90;;;;;;5060901;28;20557;-83
2022/01/06 03:06:12;;;;;;;4.03;1.67;;;5.00;99.90;;;;;;5078849;28;20067;-82
2022/01/06 03:08:40;;;;;;;4.80;2.30;;;4.90;1.00;;;;;;5078520;28;20064;-82
2022/01/06 03:11:08;;;;;;;5.68;2.63;;;4.80;1.00;;;;;;5077188;28;20529;-81
2022/01/06 03:13:37;;;;;;;6.72;3.20;;;4.80;1.00;;;;;;5079170;28;20048;-82
2022/01/06 03:16:05;;;;;;;6.70;2.83;;;4.70;1.00;;;;;;5088994;28;20040;-82
2022/01/06 03:18:33;;;;;;;6.63;3.17;;;4.70;1.00;;;;;;5060204;28;20496;-81
2022/01/06 03:21:01;;;;;;;7.30;3.50;;;4.60;1.00;;;;;;5078431;28;20523;-82
2022/01/06 03:23:28;;;;;;;4.78;2.60;;;4.60;1.00;;;;;;5078555;28;20044;-81
2022/01/06 03:25:56;;;;;;;4.53;2.13;;;4.50;1.00;;;;;;5060395;28;20098;-82
2022/01/06 03:28:24;;;;;;;4.43;1.95;;;4.40;99.90;;;;;;5078179;28;20067;-81
2022/01/06 03:30:53;;;;;;;2.55;1.33;;;4.40;99.90;;;;;;5060570;28;20614;-79
2022/01/06 03:33:20;;;;;;;3.00;1.50;;;4.30;99.90;;;;;;5077450;28;20040;-81
2022/01/06 03:35:49;;;;;;;2.22;1.00;;;4.30;99.90;;;;;;5077496;28;20098;-81
2022/01/06 03:38:17;;;;;;;1.92;0.70;;;4.20;99.90;;;;;;5077585;28;20127;-81
2022/01/06 03:40:45;;;;;;;2.55;0.60;;;4.20;99.90;;;;;;5078998;28;20167;-79
2022/01/06 03:43:12;;;;;;;2.05;0.98;;;4.10;99.90;;;;;;5081349;28;20036;-81
2022/01/06 03:45:40;;;;;;;2.25;0.80;;;4.10;99.90;;;;;;5090084;28;20139;-80
2022/01/06 03:48:09;;;;;;;2.63;1.40;;;4.00;99.90;;;;;;5087960;28;20443;-82
2022/01/06 03:50:36;;;;;;;3.67;1.52;;;4.00;99.90;;;;;;5070587;28;20064;-82
2022/01/06 03:53:04;;;;;;;4.07;1.42;;;3.90;1.00;;;;;;5084163;28;20487;-82
2022/01/06 03:55:31;;;;;;;3.60;1.67;;;3.90;1.00;;;;;;5059925;28;20060;-80
2022/01/06 03:57:59;;;;;;;4.13;1.80;;;3.80;56.00;;;;;;5077122;28;20052;-82
2022/01/06 04:00:26;;;;;;;4.50;2.05;;;3.70;1.00;;;;;;5076747;28;20108;-81
2022/01/06 04:02:54;;;;;;;5.38;2.50;;;3.60;1.00;;;;;;5077593;28;20040;-82
2022/01/06 04:05:23;;;;;;;6.70;2.55;;;3.50;1.00;;;;;;5076993;28;20127;-81
2022/01/06 04:07:50;;;;;;;7.68;2.90;;;3.50;1.00;;;;;;5078630;28;20040;-81
2022/01/06 04:10:17;;;;;;;8.57;4.10;;;3.50;1.00;;;;;;5097650;28;20068;-81
2022/01/06 04:12:45;;;;;;;8.65;4.22;;;3.50;59.40;;;;;;5076637;28;20049;-80
2022/01/06 04:15:13;;;;;;;9.63;4.38;;;3.60;18.20;;;;;;5076473;28;20123;-82
2022/01/06 04:17:42;;;;;;;8.10;4.28;;;3.50;1.00;;;;;;5077156;28;20036;-80
2022/01/06 04:20:11;;;;;;;8.05;4.22;;;3.50;1.00;;;;;;5077303;28;20058;-81
2022/01/06 04:22:40;;;;;;;7.05;3.72;;;3.40;99.90;;;;;;5077534;28;20123;-82
2022/01/06 04:25:08;;;;;;;7.13;3.50;;;3.30;99.90;;;;;;5077886;28;20128;-81
2022/01/06 04:27:36;;;;;;;7.03;4.03;;;3.30;99.90;;;;;;5078430;28;20036;-82
2022/01/06 04:30:06;;;;;;;7.97;4.28;;;3.30;99.90;;;;;;5099282;28;20043;-81
2022/01/06 04:32:34;;;;;;;7.20;3.95;;;3.30;89.30;;;;;;5101411;28;20371;-79
2022/01/06 04:35:02;;;;;;;9.15;4.75;;;3.30;1.00;;;;;;5100414;28;20050;-81
2022/01/06 04:37:29;;;;;;;8.00;4.35;;;3.30;1.00;;;;;;5100673;28;20127;-81
2022/01/06 04:39:58;;;;;;;9.10;5.25;;;3.30;1.00;;;;;;5077905;28;20529;-80
2022/01/06 04:42:26;;;;;;;9.60;5.18;;;3.20;1.00;;;;;;5059691;28;20041;-82
2022/01/06 04:44:54;;;;;;;7.80;4.60;;;3.20;1.00;;;;;;5077021;28;20048;-81
2022/01/06 04:47:22;;;;;;;8.82;5.50;;;3.30;1.00;;;;;;5077830;28;20457;-80
2022/01/06 04:49:49;;;;;;;7.10;4.40;;;3.30;1.00;;;;;;5075816;28;20438;-82
2022/01/06 04:52:17;;;;;;;8.98;5.22;;;3.40;1.00;;;;;;5077556;28;20036;-84
2022/01/06 04:54:44;;;;;;;9.68;6.00;;;3.50;1.00;;;;;;5076840;28;20043;-79
2022/01/06 04:57:17;;;;;;;10.43;5.90;;;3.50;1.00;;;;;;5076816;28;20055;-81
2022/01/06 04:59:44;;;;;;;9.13;6.65;;;3.50;1.00;;;;;;5088015;28;20108;-83
2022/01/06 05:02:12;;;;;;;10.57;6.05;;;3.50;1.00;;;;;;5070568;28;20174;-83
2022/01/06 05:04:39;;;;;;;9.20;5.93;;;3.50;99.90;;;;;;5092486;28;20052;-79
2022/01/06 05:07:07;;;;;;;8.05;5.75;;;3.50;99.90;;;;;;5069549;28;20128;-83
2022/01/06 05:09:35;;;;;;;12.63;6.47;;;3.50;99.90;;;;;;5093021;28;20076;-82
2022/01/06 05:12:03;;;;;;;9.07;5.68;;;3.40;99.90;;;;;;5079210;28;20064;-81
2022/01/06 05:14:32;;;;;;;9.13;5.85;;;3.40;99.90;;;;;;5076033;28;20044;-81
2022/01/06 05:17:00;;;;;;;9.05;5.60;;;3.50;99.90;;;;;;5076029;28;20123;-82
2022/01/06 05:19:27;;;;;;;8.63;5.45;;;3.50;99.90;;;;;;5058255;28;20411;-80
2022/01/06 05:21:55;;;;;;;8.13;5.07;;;3.50;99.90;;;;;;5075729;28;20491;-80
2022/01/06 05:24:24;;;;;;;9.77;6.20;;;3.50;99.90;;;;;;5075672;28;20471;-83
2022/01/06 05:26:54;;;;;;;8.30;5.43;;;3.50;99.90;;;;;;5058209;28;20053;-82
2022/01/06 05:29:21;;;;;;;7.85;4.90;;;3.50;99.90;;;;;;5076028;28;20108;-84
2022/01/06 05:31:50;;;;;;;8.52;5.75;;;3.50;99.90;;;;;;5076030;28;20476;-81
2022/01/06 05:34:18;;;;;;;9.07;5.68;;;3.50;99.90;;;;;;5076067;28;20127;-82
2022/01/06 05:36:45;;;;;;;9.68;6.40;;;3.60;99.90;;;;;;5076343;28;20044;-82
2022/01/06 05:39:13;;;;;;;12.18;6.63;;;3.60;99.90;;;;;;5057505;28;20160;-82
2022/01/06 05:41:41;;;;;;;12.63;7.75;;;3.60;99.90;;;;;;5058342;28;20048;-81
2022/01/06 05:44:09;;;;;;;14.57;7.75;;;3.70;99.90;;;;;;5076209;28;20051;-80
2022/01/06 05:46:36;;;;;;;11.93;7.80;;;3.70;99.90;;;;;;5075865;28;20071;-80
2022/01/06 05:49:05;;;;;;;12.10;7.43;;;3.80;99.90;;;;;;5057968;28;20070;-81
2022/01/06 05:51:33;;;;;;;11.52;7.13;;;3.70;44.50;;;;;;5075335;28;20053;-80
2022/01/06 05:54:00;;;;;;;12.02;7.60;;;3.70;1.00;;;;;;5084025;28;20132;-83
2022/01/06 05:56:28;;;;;;;12.02;7.93;;;3.60;1.00;;;;;;5084135;28;20040;-81
2022/01/06 05:58:59;;;;;;;12.98;7.72;;;3.60;99.90;;;;;;5085762;28;20083;-81
2022/01/06 06:01:27;;;;;;;12.30;7.80;;;3.60;74.10;;;;;;5089222;28;20107;-82
2022/01/06 06:03:55;;;;;;;12.65;7.75;;;3.60;99.90;;;;;;5080056;28;20102;-81
2022/01/06 06:06:24;;;;;;;13.38;8.48;;;3.60;99.90;;;;;;5090513;28;20449;-82
2022/01/06 06:08:54;;;;;;;14.73;9.85;;;3.70;99.90;;;;;;5079006;28;20063;-82
2022/01/06 06:11:21;;;;;;;14.73;9.68;;;3.70;94.80;;;;;;5078166;28;20063;-81
2022/01/06 06:13:52;;;;;;;13.40;8.35;;;3.70;18.60;;;;;;5078010;28;20047;-82
2022/01/06 06:16:19;;;;;;;14.75;7.85;;;3.70;1.00;;;;;;5096893;28;20408;-81
2022/01/06 06:18:47;;;;;;;11.55;7.75;;;3.70;99.90;;;;;;5079917;28;20130;-83
2022/01/06 06:21:15;;;;;;;10.05;6.80;;;3.70;86.00;;;;;;5097803;28;20094;-82
2022/01/06 06:23:43;;;;;;;16.92;8.48;;;3.70;1.00;;;;;;5082611;28;20055;-82
2022/01/06 06:26:13;;;;;;;18.15;8.80;;;3.70;1.00;;;;;;5083424;28;20044;-81
2022/01/06 06:28:41;;;;;;;16.83;9.88;;;3.70;1.00;;;;;;5102573;28;20055;-83
2022/01/06 06:31:09;;;;;;;18.13;11.10;;;3.70;21.20;;;;;;5072763;28;20040;-82
2022/01/06 06:33:36;;;;;;;19.48;11.95;;;3.70;4.70;;;;;;5082865;28;20057;-79
2022/01/06 06:36:04;;;;;;;17.00;10.77;;;3.80;35.70;;;;;;5105250;28;20036;-81
2022/01/06 06:38:32;;;;;;;19.67;10.57;;;3.80;1.00;;;;;;5108145;28;20055;-80
2022/01/06 06:41:01;;;;;;;20.65;11.73;;;3.80;1.00;;;;;;5104252;28;20040;-80
2022/01/06 06:43:28;;;;;;;20.00;11.25;;;3.80;1.00;;;;;;5101810;28;20031;-80
2022/01/06 06:45:56;;;;;;;22.27;12.77;;;3.70;1.00;;;;;;5100330;28;20041;-81
2022/01/06 06:48:24;;;;;;;23.85;13.02;;;3.70;1.00;;;;;;5100933;28;20048;-81
2022/01/06 06:50:52;;;;;;;20.08;11.50;;;3.80;1.00;;;;;;5103737;28;20013;-80
2022/01/06 06:53:20;;;;;;;19.88;12.63;;;3.80;1.00;;;;;;5104839;28;20118;-80
2022/01/06 06:55:47;;;;;;;22.77;14.02;;;3.80;1.00;;;;;;5083420;28;20056;-79
2022/01/06 06:58:16;;;;;;;23.70;14.25;;;3.70;1.00;;;;;;5079463;28;20057;-80
2022/01/06 07:00:44;;;;;;;26.27;15.88;;;3.70;1.00;;;;;;5073395;28;20057;-82
2022/01/06 07:03:12;;;;;;;23.85;13.20;;;3.60;1.00;;;;;;5080497;28;20033;-81
2022/01/06 07:05:39;;;;;;;25.38;15.65;;;3.70;16.90;;;;;;5098729;28;20074;-79
2022/01/06 07:08:07;;;;;;;24.35;14.30;;;3.70;35.90;;;;;;5096331;28;20275;-82
2022/01/06 07:10:35;;;;;;;18.42;12.13;;;3.70;1.00;;;;;;5097273;28;20031;-80
2022/01/06 07:13:02;;;;;;;26.48;15.95;;;3.70;1.00;;;;;;5088230;28;20049;-84
2022/01/06 07:15:33;;;;;;;29.38;17.08;;;3.70;1.00;;;;;;5072851;28;20056;-82
2022/01/06 07:18:00;;;;;;;24.02;15.27;;;3.70;1.00;;;;;;5086817;28;20496;-84
2022/01/06 07:20:28;;;;;;;27.48;16.48;;;3.70;1.00;;;;;;5075362;28;20044;-84
2022/01/06 07:22:56;;;;;;;29.35;18.75;;;3.70;1.00;;;;;;5098627;28;20036;-82
2022/01/06 07:25:23;;;;;;;28.00;18.05;;;3.70;1.00;;;;;;5089347;28;20055;-83
2022/01/06 07:27:51;;;;;;;30.52;17.60;;;3.80;1.00;;;;;;5081454;28;20207;-82
2022/01/06 07:30:18;;;;;;;30.75;19.92;;;3.80;1.00;;;;;;5065336;28;20056;-83
2022/01/06 07:32:48;;;;;;;32.38;20.30;;;3.90;1.00;;;;;;5064689;28;20048;-85
2022/01/06 07:35:18;;;;;;;34.03;21.27;;;3.90;1.00;;;;;;5082216;28;20049;-84
2022/01/06 07:37:45;;;;;;;37.30;23.13;;;3.80;1.00;;;;;;5082377;28;20466;-84
2022/01/06 07:40:13;;;;;;;34.22;22.27;;;3.80;1.00;;;;;;5078972;28;20051;-83
2022/01/06 07:42:41;;;;;;;32.80;22.02;;;3.80;1.00;;;;;;5080171;28;20063;-83
2022/01/06 07:45:09;;;;;;;39.42;24.85;;;3.80;1.00;;;;;;5081445;28;20036;-84
2022/01/06 07:47:43;;;;;;;34.53;21.95;;;3.80;1.00;;;;;;5082464;28;20120;-81
2022/01/06 07:50:12;;;;;;;33.50;22.05;;;3.80;1.00;;;;;;5064113;28;20450;-84
2022/01/06 07:52:40;;;;;;;35.72;23.30;;;3.80;1.00;;;;;;5081199;28;20040;-84
2022/01/06 07:55:08;;;;;;;30.13;19.85;;;3.80;1.00;;;;;;5080541;28;20040;-81
2022/01/06 07:57:35;;;;;;;37.08;21.80;;;3.80;1.00;;;;;;5082455;28;20040;-83
2022/01/06 08:00:04;;;;;;;32.95;20.80;;;3.80;1.00;;;;;;5082866;28;20036;-84
2022/01/06 08:02:39;;;;;;;38.58;24.80;;;3.90;1.00;;;;;;5081105;28;20553;-84
2022/01/06 08:05:11;;;;;;;31.35;20.33;;;4.00;1.00;;;;;;5064325;28;20076;-86
2022/01/06 08:07:40;;;;;;;26.58;18.35;;;3.90;1.00;;;;;;5064618;28;20052;-83
2022/01/06 08:10:10;;;;;;;29.80;18.85;;;3.90;1.00;;;;;;5061413;28;20128;-82
2022/01/06 08:12:38;;;;;;;31.88;21.55;;;3.90;1.00;;;;;;5044550;28;20045;-85
2022/01/06 08:15:07;;;;;;;30.15;18.13;;;4.00;1.00;;;;;;5061344;28;20041;-84
2022/01/06 08:17:36;;;;;;;31.65;19.15;;;4.00;1.00;;;;;;5063812;28;20077;-85
2022/01/06 08:20:04;;;;;;;25.92;17.08;;;4.00;1.00;;;;;;5043558;28;20056;-84
2022/01/06 08:22:32;;;;;;;25.95;17.65;;;4.00;1.00;;;;;;5076442;28;20052;-80
2022/01/06 08:25:02;;;;;;;29.00;16.80;;;4.10;1.00;;;;;;5065896;28;20061;-83
2022/01/06 08:27:30;;;;;;;29.92;18.05;;;4.20;1.00;;;;;;5073526;28;20028;-84
2022/01/06 08:29:57;;;;;;;39.78;22.35;;;4.30;1.00;;;;;;5081337;28;20053;-84
2022/01/06 08:32:25;;;;;;;34.78;21.42;;;4.40;1.00;;;;;;5076789;28;20065;-84
2022/01/06 08:34:53;;;;;;;37.42;22.15;;;4.60;1.00;;;;;;5070943;28;20072;-83
2022/01/06 08:37:20;;;;;;;37.33;22.52;;;4.60;99.90;;;;;;5062159;28;20053;-81
2022/01/06 08:39:48;;;;;;;36.67;22.35;;;4.70;99.90;;;;;;5075797;28;20036;-85
2022/01/06 08:42:16;;;;;;;37.05;22.83;;;4.80;70.10;;;;;;5077967;28;20044;-82
2022/01/06 08:44:44;;;;;;;33.67;23.38;;;4.70;11.90;;;;;;5077957;28;20037;-76
2022/01/06 08:47:12;;;;;;;47.22;27.40;;;4.70;1.00;;;;;;5059869;28;20037;-80
2022/01/06 08:49:41;;;;;;;48.30;28.83;;;4.60;1.00;;;;;;5078501;28;20037;-78
2022/01/06 08:52:09;;;;;;;40.25;25.67;;;4.70;1.00;;;;;;5095450;28;20045;-81
2022/01/06 08:54:37;;;;;;;40.75;26.35;;;4.70;1.00;;;;;;5067080;28;20072;-80
2022/01/06 08:57:06;;;;;;;40.33;23.30;;;4.70;1.00;;;;;;5058411;28;20063;-83
2022/01/06 08:59:36;;;;;;;34.20;21.70;;;4.70;99.90;;;;;;5075207;28;20116;-83
2022/01/06 09:02:04;;;;;;;41.65;24.02;;;4.70;41.80;;;;;;5092381;28;20049;-81
2022/01/06 09:04:32;;;;;;;36.42;22.67;;;4.70;1.00;;;;;;5075082;28;20029;-83
2022/01/06 09:07:00;;;;;;;39.65;24.77;;;4.60;94.50;;;;;;5087851;28;20091;-83
2022/01/06 09:09:28;;;;;;;47.25;26.23;;;4.70;1.00;;;;;;5075448;28;20052;-84
2022/01/06 09:11:55;;;;;;;42.75;25.20;;;4.60;1.00;;;;;;5071180;28;20067;-82
2022/01/06 09:14:23;;;;;;;34.90;21.67;;;4.60;1.00;;;;;;5095982;28;20024;-82
2022/01/06 09:16:54;;;;;;;35.00;23.58;;;4.60;17.30;;;;;;5095596;28;20020;-82
2022/01/06 09:19:21;;;;;;;37.08;23.30;;;4.50;1.00;;;;;;5095363;28;20108;-83
2022/01/06 09:21:49;;;;;;;39.58;24.55;;;4.50;1.00;;;;;;5092373;28;20046;-84
2022/01/06 09:24:18;;;;;;;44.08;27.10;;;4.60;1.00;;;;;;5078096;28;20048;-82
2022/01/06 09:26:45;;;;;;;38.70;24.70;;;4.60;1.00;;;;;;5076638;28;20101;-86
2022/01/06 09:29:16;;;;;;;46.17;26.83;;;4.60;1.00;;;;;;5069395;28;20041;-85
2022/01/06 09:31:43;;;;;;;40.20;26.30;;;4.70;1.00;;;;;;5078823;28;20040;-84
2022/01/06 09:34:13;;;;;;;37.42;24.38;;;4.80;1.00;;;;;;5066608;28;20032;-82
2022/01/06 09:36:46;;;;;;;36.00;22.80;;;4.80;1.00;;;;;;5079319;28;20033;-82
2022/01/06 09:39:14;;;;;;;42.72;26.08;;;4.70;92.90;;;;;;5094540;28;20040;-82
2022/01/06 09:41:42;;;;;;;42.13;26.33;;;4.70;1.00;;;;;;5094036;28;20028;-80
2022/01/06 09:44:10;;;;;;;41.05;26.05;;;4.70;1.00;;;;;;5069286;28;20063;-83
2022/01/06 09:46:37;;;;;;;46.85;29.20;;;4.80;1.00;;;;;;5079427;28;20045;-84
2022/01/06 09:49:05;;;;;;;53.72;31.60;;;4.70;1.00;;;;;;5079811;28;20048;-84
2022/01/06 09:51:35;;;;;;;48.50;29.17;;;4.60;99.90;;;;;;5081339;28;20518;-84
2022/01/06 09:54:07;;;;;;;43.85;28.02;;;4.60;99.90;;;;;;5063464;28;20037;-84
2022/01/06 09:56:35;;;;;;;44.47;28.40;;;4.50;99.90;;;;;;5080665;28;20048;-84
2022/01/06 09:59:04;;;;;;;45.65;28.60;;;4.50;99.90;;;;;;5080784;28;20094;-84
2022/01/06 10:01:32;;;;;;;41.55;25.77;;;4.70;99.90;;;;;;5099641;28;20036;-81
2022/01/06 10:03:59;;;;;;;36.90;21.70;;;4.80;99.90;;;;;;5070815;28;20446;-81
2022/01/06 10:06:28;;;;;;;35.13;22.08;;;4.80;1.00;;;;;;5086575;28;20063;-82
2022/01/06 10:09:01;;;;;;;39.58;23.80;;;4.90;1.00;;;;;;5088097;28;20044;-80
2022/01/06 10:11:31;;;;;;;35.38;21.88;;;5.00;1.00;;;;;;5087625;28;20048;-83
2022/01/06 10:14:00;;;;;;;34.67;21.13;;;5.00;96.50;;;;;;5086524;28;20056;-82
2022/01/06 10:16:30;;;;;;;40.58;25.23;;;5.10;5.90;;;;;;5085513;28;20100;-82
2022/01/06 10:19:03;;;;;;;38.65;23.80;;;5.10;1.00;;;;;;5098650;28;20028;-82
2022/01/06 10:21:33;;;;;;;45.05;26.55;;;5.10;1.00;;;;;;5083743;28;20048;-82
2022/01/06 10:24:09;;;;;;;41.78;24.38;;;5.20;95.00;;;;;;5084748;28;20040;-83
2022/01/06 10:26:39;;;;;;;45.28;26.13;;;5.10;1.00;;;;;;5085392;28;20099;-83
2022/01/06 10:29:09;;;;;;;43.22;27.02;;;5.10;1.00;;;;;;5067778;28;20056;-84
2022/01/06 10:31:36;;;;;;;41.80;27.05;;;5.10;99.90;;;;;;5084409;28;20513;-81
2022/01/06 10:34:11;;;;;;;47.72;29.95;;;5.00;99.90;;;;;;5087270;28;20261;-83
2022/01/06 10:36:38;;;;;;;51.17;29.67;;;4.90;99.90;;;;;;5066774;28;20049;-84
2022/01/06 10:39:09;;;;;;;38.13;25.27;;;4.90;99.90;;;;;;5072371;28;20041;-84
2022/01/06 10:41:38;;;;;;;37.20;23.92;;;4.90;1.00;;;;;;5077804;28;20068;-83
2022/01/06 10:44:10;;;;;;;36.38;22.92;;;4.90;1.00;;;;;;5066689;28;20412;-82
2022/01/06 10:46:39;;;;;;;34.63;22.13;;;4.90;1.00;;;;;;5055649;28;20140;-82
2022/01/06 10:49:10;;;;;;;34.13;23.95;;;4.80;1.00;;;;;;5064679;28;20128;-83
2022/01/06 10:51:41;;;;;;;34.80;23.63;;;4.80;1.00;;;;;;5069702;28;20048;-83
2022/01/06 10:54:16;;;;;;;35.40;23.00;;;4.80;1.00;;;;;;5078306;28;20051;-83
2022/01/06 10:56:44;;;;;;;39.07;25.17;;;4.80;1.00;;;;;;5077737;28;20040;-84
2022/01/06 10:59:12;;;;;;;41.88;27.85;;;4.70;1.00;;;;;;5078677;28;20668;-83
2022/01/06 11:01:39;;;;;;;48.40;28.70;;;4.70;99.90;;;;;;5077849;28;20051;-85
2022/01/06 11:04:07;;;;;;;36.97;25.60;;;4.90;1.00;;;;;;5079505;28;20036;-86
2022/01/06 11:06:36;;;;;;;36.03;25.02;;;5.00;99.90;;;;;;5079585;28;20076;-84
2022/01/06 11:09:05;;;;;;;42.75;26.77;;;5.20;1.00;;;;;;5083679;28;20032;-85
2022/01/06 11:14:28;;;;;;;48.63;30.48;;;5.40;1.00;;;;;;5076811;28;20044;-81
2022/01/06 11:16:56;;;;;;;39.33;26.13;;;5.60;99.90;;;;;;5069078;28;20047;-83
2022/01/06 11:19:24;;;;;;;35.13;23.88;;;5.60;1.00;;;;;;5086543;28;20510;-82
2022/01/06 11:21:55;;;;;;;38.25;26.27;;;5.70;1.00;;;;;;5084038;28;20044;-82
2022/01/06 11:24:24;;;;;;;41.20;27.20;;;5.60;99.90;;;;;;5080500;28;20072;-81
2022/01/06 11:27:02;;;;;;;38.15;26.13;;;5.70;98.00;;;;;;5062298;28;20060;-81
2022/01/06 11:29:32;;;;;;;47.13;27.83;;;5.70;99.90;;;;;;5057670;28;20071;-82
2022/01/06 11:32:00;;;;;;;45.70;30.75;;;5.80;99.90;;;;;;5049313;28;20049;-80
2022/01/06 11:34:30;;;;;;;40.30;26.98;;;5.90;1.00;;;;;;5091567;28;20032;-81
2022/01/06 11:36:58;;;;;;;45.22;29.02;;;6.10;99.90;;;;;;5081932;28;20399;-83
2022/01/06 11:39:28;;;;;;;41.35;27.08;;;6.20;67.20;;;;;;5068880;28;20087;-83
2022/01/06 11:41:56;;;;;;;41.35;27.90;;;6.00;1.00;;;;;;5081756;28;20036;-84
2022/01/06 11:44:29;;;;;;;39.58;25.98;;;6.00;99.90;;;;;;5063977;28;20047;-83
2022/01/06 11:46:59;;;;;;;42.25;26.38;;;6.00;99.90;;;;;;5080265;28;20044;-82
2022/01/06 11:49:35;;;;;;;41.17;26.02;;;6.10;1.00;;;;;;5086451;28;20068;-82
2022/01/06 11:52:13;;;;;;;40.25;25.77;;;6.10;1.00;;;;;;5080832;28;20091;-81
2022/01/06 11:54:51;;;;;;;40.95;25.67;;;6.10;1.00;;;;;;5081052;28;20037;-83
2022/01/06 11:57:29;;;;;;;43.42;27.85;;;5.90;1.00;;;;;;5081963;28;20124;-82
2022/01/06 11:59:59;;;;;;;38.97;27.23;;;5.80;1.00;;;;;;5081655;28;20045;-82
2022/01/06 12:02:27;;;;;;;45.70;27.27;;;5.80;1.00;;;;;;5061261;28;20078;-83
2022/01/06 12:04:59;;;;;;;39.33;26.50;;;5.80;1.00;;;;;;5081526;28;20032;-84
2022/01/06 12:07:27;;;;;;;37.05;26.33;;;5.80;1.00;;;;;;5065043;28;20057;-81
2022/01/06 12:10:02;;;;;;;37.10;25.25;;;5.80;1.00;;;;;;5085372;28;20127;-86
2022/01/06 12:12:37;;;;;;;39.92;25.67;;;5.70;1.00;;;;;;5080521;28;20041;-85
2022/01/06 12:15:14;;;;;;;45.85;29.00;;;5.60;1.00;;;;;;5080681;28;20071;-83
2022/01/06 12:17:46;;;;;;;38.33;26.83;;;5.70;99.90;;;;;;5064349;28;20052;-84
2022/01/06 12:20:23;;;;;;;39.47;25.90;;;5.80;99.90;;;;;;5075850;28;20082;-82
2022/01/06 12:22:51;;;;;;;37.03;25.20;;;5.70;1.00;;;;;;5076459;28;20079;-84
2022/01/06 12:25:23;;;;;;;43.20;28.15;;;5.70;1.00;;;;;;5075078;28;20056;-83
2022/01/06 12:27:55;;;;;;;39.75;27.85;;;5.70;99.90;;;;;;5073598;28;20064;-80
2022/01/06 12:30:35;;;;;;;43.65;29.08;;;5.60;99.90;;;;;;5084415;28;20056;-84
2022/01/06 12:33:06;;;;;;;39.47;26.92;;;5.70;1.00;;;;;;5048964;28;20072;-84
2022/01/06 12:35:43;;;;;;;43.05;29.67;;;5.60;1.00;;;;;;5059608;28;20552;-83
2022/01/06 12:38:13;;;;;;;47.05;28.60;;;5.60;99.90;;;;;;5063861;28;20049;-82
2022/01/06 12:40:44;;;;;;;37.67;25.10;;;5.70;99.90;;;;;;5071906;28;20052;-83
2022/01/06 12:43:18;;;;;;;37.58;25.45;;;5.80;99.90;;;;;;5065537;28;20049;-83
2022/01/06 12:45:48;;;;;;;34.78;24.90;;;5.80;1.00;;;;;;5078854;28;20037;-81
2022/01/06 12:48:15;;;;;;;45.17;27.70;;;5.80;1.00;;;;;;5084471;28;20094;-84
2022/01/06 12:50:49;;;;;;;34.47;22.92;;;5.90;1.00;;;;;;5086148;28;20067;-83
2022/01/06 12:53:28;;;;;;;36.38;22.90;;;6.00;26.20;;;;;;5071474;28;20052;-81
2022/01/06 12:55:55;;;;;;;35.05;23.67;;;5.90;99.90;;;;;;5076824;28;20060;-84
2022/01/06 12:58:28;;;;;;;41.15;24.63;;;5.80;1.00;;;;;;5057869;28;20057;-83
2022/01/06 13:00:59;;;;;;;41.45;27.92;;;5.70;1.00;;;;;;5089146;28;20085;-84
2022/01/06 13:03:29;;;;;;;47.20;30.52;;;5.70;1.00;;;;;;5070437;28;20060;-84
2022/01/06 13:05:58;;;;;;;46.70;30.15;;;5.60;1.00;;;;;;5093521;28;20021;-82
2022/01/06 13:08:26;;;;;;;45.78;29.58;;;5.50;1.00;;;;;;5080797;28;20108;-85
2022/01/06 13:11:07;;;;;;;47.50;30.77;;;5.50;99.90;;;;;;5092060;28;20060;-84